Terminal Aerodrome Forecast
Issued by NWS

Home | Current Version | Previous Version | Text Only | Print | Product List | Glossary On
Versions: 1 2 3 4 5 6 7 8 9 10 11 12 13 14 15 16 17 18 19 20 21 22 23 24
822
FTAK31 PAFA 071139
TAFABT
TAF
PABT 071139Z 0712/0812 33004KT P6SM SCT025 BKN040 OVC080
      TEMPO 0715/0719 5SM -SHSN BKN025 OVC060
     FM071900 35005KT P6SM SCT040 BKN100
     FM080300 34004KT P6SM SCT100=

USA.gov is the U.S. government's official web portal to all federal, state and local government web resources and services.